Time;durP1;ratioP1;P1;durP2;ratioP2;P2;SDS_P1;SDS_P2;PMS_P1;PMS_P2;Temp;Humidity;BMP_temperature;BMP_pressure;BME280_temperature;BME280_humidity;BME280_pressure;Samples;Min_cycle;Max_cycle;Signal;HPM_P1;HPM_P2
2023/02/11 00:00:57;;;;;;;63.72;36.65;;;;;;;1.81;100.00;102439.97;5075718;28;20136;-78
2023/02/11 00:03:24;;;;;;;60.70;35.85;;;;;;;1.32;100.00;102337.06;5064794;28;20054;-78
2023/02/11 00:05:59;;;;;;;68.55;36.38;;;;;;;1.07;100.00;102287.81;5065812;28;20485;-78
2023/02/11 00:08:26;;;;;;;62.63;35.78;;;;;;;0.99;100.00;102256.34;5066509;28;20700;-78
2023/02/11 00:10:54;;;;;;;63.00;35.17;;;;;;;1.28;100.00;102295.22;5073402;28;20070;-76
2023/02/11 00:13:22;;;;;;;63.08;35.83;;;;;;;2.10;100.00;102432.72;5061272;28;20123;-76
2023/02/11 00:15:49;;;;;;;64.90;34.90;;;;;;;1.46;100.00;102297.31;5065766;28;20127;-78
2023/02/11 00:18:16;;;;;;;60.20;33.83;;;;;;;1.60;100.00;102316.75;5068868;28;20082;-76
2023/02/11 00:20:43;;;;;;;64.85;35.35;;;;;;;1.75;100.00;102345.78;5064284;28;20052;-77
2023/02/11 00:23:09;;;;;;;62.45;34.85;;;;;;;1.90;100.00;102360.88;5043361;28;20040;-77
2023/02/11 00:25:44;;;;;;;63.20;36.05;;;;;;;2.20;100.00;102411.16;5066258;28;20106;-77
2023/02/11 00:28:10;;;;;;;61.47;35.63;;;;;;;1.54;100.00;102301.00;5059863;28;20488;-78
2023/02/11 00:30:37;;;;;;;63.78;35.50;;;;;;;2.24;100.00;102414.69;5065569;28;20670;-76
2023/02/11 00:33:04;;;;;;;61.33;34.17;;;;;;;1.94;100.00;102358.38;5063016;28;20048;-78
2023/02/11 00:35:31;;;;;;;63.00;35.05;;;;;;;2.36;100.00;102426.25;5069701;28;20048;-77
2023/02/11 00:37:57;;;;;;;64.53;34.90;;;;;;;2.08;100.00;102387.38;5072939;28;20489;-76
2023/02/11 00:40:24;;;;;;;61.88;35.33;;;;;;;1.09;100.00;102215.69;5069096;28;20071;-77
2023/02/11 00:42:51;;;;;;;65.45;36.17;;;;;;;1.97;100.00;102368.00;5066718;28;20140;-76
2023/02/11 00:45:19;;;;;;;65.03;35.70;;;;;;;2.32;100.00;102418.34;5068585;28;20420;-77
2023/02/11 00:47:46;;;;;;;61.70;34.50;;;;;;;2.19;100.00;102391.09;5064040;28;20110;-76
2023/02/11 00:50:12;;;;;;;66.35;36.10;;;;;;;2.19;100.00;102382.38;5062609;28;20049;-76
2023/02/11 00:52:39;;;;;;;62.08;34.85;;;;;;;1.91;100.00;102336.53;5049410;28;20444;-78
2023/02/11 00:55:06;;;;;;;63.95;35.10;;;;;;;2.09;100.00;102361.28;5060918;28;20077;-76
2023/02/11 00:57:33;;;;;;;60.53;34.35;;;;;;;2.32;100.00;102402.66;5069634;28;20052;-76
2023/02/11 01:00:00;;;;;;;64.15;35.03;;;;;;;1.84;100.00;102322.50;5063534;28;20076;-75
2023/02/11 01:02:26;;;;;;;58.90;33.95;;;;;;;1.78;100.00;102304.06;5068855;28;20052;-77
2023/02/11 01:04:53;;;;;;;65.13;35.35;;;;;;;2.25;100.00;102388.59;5058667;28;20164;-77
2023/02/11 01:07:19;;;;;;;67.10;36.25;;;;;;;1.90;100.00;102345.22;5063253;28;20089;-76
2023/02/11 01:09:46;;;;;;;63.20;35.85;;;;;;;1.92;100.00;102356.59;5060607;28;20488;-76
2023/02/11 01:12:13;;;;;;;63.22;35.38;;;;;;;2.07;100.00;102391.72;5065335;28;20484;-76
2023/02/11 01:14:39;;;;;;;67.07;35.85;;;;;;;1.30;100.00;102256.97;5057660;28;20076;-75
2023/02/11 01:17:06;;;;;;;57.75;33.80;;;;;;;2.15;100.00;102383.16;5055537;28;20618;-75
2023/02/11 01:19:35;;;;;;;61.15;33.97;;;;;;;1.95;100.00;102354.91;5069029;28;20048;-76
2023/02/11 01:22:02;;;;;;;60.83;35.22;;;;;;;2.14;100.00;102391.88;5060726;28;20063;-75
2023/02/11 01:24:29;;;;;;;65.68;35.42;;;;;;;1.98;100.00;102378.50;5041582;28;20059;-76
2023/02/11 01:26:55;;;;;;;62.72;35.70;;;;;;;1.31;100.00;102266.56;5061276;28;20067;-76
2023/02/11 01:29:22;;;;;;;66.63;36.55;;;;;;;1.40;100.00;102317.25;5062938;28;20052;-76
2023/02/11 01:31:49;;;;;;;69.50;36.28;;;;;;;1.92;100.00;102401.00;5065373;28;20070;-77
2023/02/11 01:34:15;;;;;;;63.40;36.85;;;;;;;1.77;100.00;102381.56;5059299;28;20033;-77
2023/02/11 01:36:42;;;;;;;68.15;36.90;;;;;;;1.39;100.00;102322.44;5044586;28;20414;-77
2023/02/11 01:39:09;;;;;;;76.40;40.35;;;;;;;1.27;100.00;102309.97;5064347;28;20676;-77
2023/02/11 01:41:36;;;;;;;73.47;36.60;;;;;;;1.72;100.00;102391.03;5067778;28;20063;-76
2023/02/11 01:44:27;;;;;;;72.25;38.85;;;;;;;1.44;100.00;102333.84;5071407;28;20477;-78
2023/02/11 01:46:54;;;;;;;66.68;36.75;;;;;;;0.80;100.00;102229.81;5045237;28;20412;-76
2023/02/11 01:49:26;;;;;;;67.07;35.80;;;;;;;1.51;100.00;102340.09;5063050;28;20062;-75
2023/02/11 01:51:55;;;;;;;66.68;37.17;;;;;;;1.75;100.00;102367.56;5069888;28;20433;-76
2023/02/11 01:57:23;;;;;;;72.38;36.75;;;;;;;1.36;100.00;102309.31;5061230;28;20041;-76
2023/02/11 01:59:56;;;;;;;75.38;39.58;;;;;;;1.65;100.00;102365.63;5059731;28;20753;-76
2023/02/11 02:02:32;;;;;;;72.53;39.08;;;;;;;1.51;100.00;102345.31;5051677;28;20059;-78
2023/02/11 02:05:29;;;;;;;75.03;39.03;;;;;;;1.60;100.00;102355.94;5055721;28;20040;-78
2023/02/11 02:08:20;;;;;;;70.88;38.40;;;;;;;1.60;100.00;102351.59;5023012;28;20044;-78
2023/02/11 02:10:52;;;;;;;72.60;37.92;;;;;;;1.62;100.00;102355.13;5076136;28;20040;-78
2023/02/11 02:13:19;;;;;;;73.38;38.90;;;;;;;1.58;100.00;102355.00;5064255;28;20503;-77
2023/02/11 02:15:59;;;;;;;76.20;40.28;;;;;;;0.85;100.00;102236.00;5062953;28;20052;-78
2023/02/11 02:18:42;;;;;;;71.03;39.25;;;;;;;1.59;100.00;102348.94;5064077;28;20064;-77
2023/02/11 02:21:26;;;;;;;74.38;38.88;;;;;;;1.57;100.00;102348.94;5056199;28;20056;-78
2023/02/11 02:24:14;;;;;;;81.10;41.25;;;;;;;1.56;100.00;102339.34;5056783;28;20043;-76
2023/02/11 02:26:59;;;;;;;78.72;39.20;;;;;;;1.54;100.00;102335.81;5046564;28;20057;-76
2023/02/11 02:29:47;;;;;;;72.55;39.20;;;;;;;1.59;100.00;102328.06;5048763;28;20124;-79
2023/02/11 02:32:32;;;;;;;71.95;38.28;;;;;;;1.70;100.00;102327.44;5040959;28;20164;-77
2023/02/11 02:35:16;;;;;;;70.05;36.63;;;;;;;1.59;100.00;102283.66;5043721;28;20041;-76
2023/02/11 02:38:00;;;;;;;69.03;37.38;;;;;;;1.77;100.00;102312.75;5047566;28;20059;-77
2023/02/11 02:40:49;;;;;;;71.70;38.47;;;;;;;1.71;100.00;102302.22;5039805;28;20072;-76
2023/02/11 02:43:17;;;;;;;68.55;37.72;;;;;;;1.72;100.00;102325.75;5040851;28;20131;-77
2023/02/11 02:45:43;;;;;;;70.95;37.95;;;;;;;1.57;100.00;102324.56;5062695;28;20053;-77
2023/02/11 02:48:28;;;;;;;73.60;38.45;;;;;;;1.34;100.00;102297.97;5049113;28;20064;-77
2023/02/11 02:51:10;;;;;;;71.32;38.88;;;;;;;1.16;100.00;102279.28;5052374;28;20126;-78
2023/02/11 02:54:07;;;;;;;71.05;39.10;;;;;;;1.42;100.00;102317.25;5040880;28;20083;-77
2023/02/11 02:56:54;;;;;;;70.63;38.50;;;;;;;1.51;100.00;102330.53;5046943;28;20155;-77
2023/02/11 02:59:48;;;;;;;70.38;38.28;;;;;;;1.69;100.00;102343.97;5050066;28;20048;-78
2023/02/11 03:02:29;;;;;;;72.63;37.53;;;;;;;1.80;100.00;102343.28;5047569;28;20124;-78
2023/02/11 03:05:20;;;;;;;70.53;37.15;;;;;;;1.30;100.00;102238.72;5033072;28;20553;-77
2023/02/11 03:08:14;;;;;;;71.25;37.38;;;;;;;1.85;100.00;102347.75;5049742;28;20078;-76
2023/02/11 03:10:45;;;;;;;67.18;36.85;;;;;;;1.57;100.00;102296.72;5053297;28;20556;-76
2023/02/11 03:13:17;;;;;;;65.88;36.58;;;;;;;1.38;100.00;102256.31;5048877;28;20048;-76
2023/02/11 03:15:48;;;;;;;71.82;38.10;;;;;;;1.83;100.00;102330.28;5043176;28;20047;-77
2023/02/11 03:18:20;;;;;;;70.93;37.03;;;;;;;1.37;100.00;102253.66;5043952;28;20146;-77
2023/02/11 03:20:52;;;;;;;72.15;37.58;;;;;;;1.99;100.00;102345.41;5038574;28;20145;-77
2023/02/11 03:23:32;;;;;;;66.45;36.40;;;;;;;1.39;100.00;102224.13;5039218;28;20053;-76
2023/02/11 03:26:12;;;;;;;64.30;35.20;;;;;;;1.40;100.00;102202.41;5048359;28;20049;-75
2023/02/11 03:29:27;;;;;;;66.20;36.47;;;;;;;2.14;100.00;102322.19;5044430;28;20096;-77
2023/02/11 03:32:15;;;;;;;65.07;36.17;;;;;;;2.16;100.00;102311.75;5027888;28;20051;-76
2023/02/11 03:34:48;;;;;;;66.40;35.83;;;;;;;2.02;100.00;102274.94;5051514;28;20045;-77
2023/02/11 03:37:31;;;;;;;68.57;36.47;;;;;;;2.19;100.00;102283.94;5033054;28;20067;-76
2023/02/11 03:40:05;;;;;;;70.85;36.35;;;;;;;2.21;100.00;102279.59;5041368;28;20053;-78
2023/02/11 03:42:41;;;;;;;67.97;35.40;;;;;;;2.25;100.00;102276.19;5043425;28;20048;-78
2023/02/11 03:45:11;;;;;;;69.32;36.08;;;;;;;1.65;100.00;102161.06;5052012;28;20076;-76
2023/02/11 03:47:42;;;;;;;68.15;35.95;;;;;;;2.23;100.00;102259.59;5062398;28;20079;-77
2023/02/11 03:50:10;;;;;;;63.67;35.10;;;;;;;1.61;100.00;102149.69;5052549;28;20049;-77
2023/02/11 03:52:37;;;;;;;63.13;35.72;;;;;;;2.22;100.00;102251.72;5060002;28;20136;-77
2023/02/11 03:55:10;;;;;;;65.65;34.53;;;;;;;2.26;100.00;102251.81;5064115;28;20064;-78
2023/02/11 03:57:37;;;;;;;65.13;35.55;;;;;;;1.63;100.00;102132.31;5035565;28;20145;-79
2023/02/11 04:00:05;;;;;;;62.53;35.20;;;;;;;1.28;100.00;102082.09;5046720;28;20049;-77
2023/02/11 04:02:35;;;;;;;62.17;35.83;;;;;;;2.28;100.00;102229.19;5051694;28;20110;-77
2023/02/11 04:05:05;;;;;;;65.75;36.22;;;;;;;2.29;100.00;102241.41;5044252;28;20049;-77
2023/02/11 04:07:32;;;;;;;65.18;36.03;;;;;;;2.10;100.00;102213.22;5050579;28;20059;-76
2023/02/11 04:09:59;;;;;;;65.95;36.00;;;;;;;2.32;100.00;102251.94;5056351;28;20056;-78
2023/02/11 04:12:26;;;;;;;61.75;34.67;;;;;;;2.18;100.00;102239.50;5051812;28;20077;-77
2023/02/11 04:14:52;;;;;;;61.95;35.20;;;;;;;1.67;100.00;102151.53;5039029;28;20045;-77
2023/02/11 04:17:19;;;;;;;58.88;33.80;;;;;;;1.09;100.00;102060.88;5051584;28;20053;-77
2023/02/11 04:19:45;;;;;;;62.35;34.20;;;;;;;2.28;100.00;102277.97;5043784;28;20049;-77
2023/02/11 04:22:12;;;;;;;63.67;34.67;;;;;;;1.25;100.00;102110.75;5051534;28;20044;-78
2023/02/11 04:24:39;;;;;;;66.97;35.90;;;;;;;1.65;100.00;102167.16;5057271;28;20136;-76
2023/02/11 04:27:05;;;;;;;62.92;34.75;;;;;;;2.10;100.00;102257.63;5059592;28;20046;-76
2023/02/11 04:29:32;;;;;;;60.58;34.80;;;;;;;1.66;100.00;102187.22;5060985;28;20048;-77
2023/02/11 04:31:58;;;;;;;61.88;33.45;;;;;;;1.67;100.00;102181.13;5064124;28;20044;-76
2023/02/11 04:34:25;;;;;;;62.65;34.47;;;;;;;1.74;100.00;102185.59;5067453;28;20060;-78
2023/02/11 04:36:52;;;;;;;64.80;35.65;;;;;;;1.44;100.00;102111.94;5070532;28;20069;-76
2023/02/11 04:39:18;;;;;;;59.22;34.58;;;;;;;2.25;100.00;102267.47;5070402;28;20044;-76
2023/02/11 04:41:45;;;;;;;64.00;35.03;;;;;;;2.14;100.00;102264.69;5063455;28;20055;-76
2023/02/11 04:44:11;;;;;;;66.07;36.03;;;;;;;1.80;100.00;102212.69;5070000;28;20048;-75
2023/02/11 04:46:38;;;;;;;60.50;34.67;;;;;;;1.83;100.00;102208.41;5067492;28;20053;-78
2023/02/11 04:49:05;;;;;;;63.25;35.30;;;;;;;2.10;100.00;102266.34;5062781;28;20132;-75
2023/02/11 04:51:31;;;;;;;69.38;36.33;;;;;;;1.69;100.00;102194.22;5064710;28;20052;-77
2023/02/11 04:53:58;;;;;;;62.88;35.38;;;;;;;1.74;100.00;102201.25;5071779;28;20043;-76
2023/02/11 04:56:24;;;;;;;65.45;36.53;;;;;;;1.51;100.00;102179.09;5068564;28;20064;-77
2023/02/11 04:58:51;;;;;;;64.43;35.10;;;;;;;1.93;100.00;102261.69;5063766;28;20055;-76
2023/02/11 05:01:17;;;;;;;66.70;35.92;;;;;;;1.49;100.00;102179.91;5056523;28;20051;-75
2023/02/11 05:03:44;;;;;;;65.00;36.05;;;;;;;1.79;100.00;102231.81;5067763;28;20048;-77
2023/02/11 05:06:11;;;;;;;70.80;37.10;;;;;;;1.36;100.00;102158.81;5062074;28;20520;-75
2023/02/11 05:08:38;;;;;;;67.50;36.75;;;;;;;1.58;100.00;102193.13;5070061;28;20053;-77
2023/02/11 05:11:04;;;;;;;67.25;36.22;;;;;;;1.78;100.00;102225.72;5057078;28;20158;-75
2023/02/11 05:13:31;;;;;;;67.63;37.08;;;;;;;1.64;100.00;102201.09;5059984;28;20067;-76
2023/02/11 05:15:58;;;;;;;72.93;37.90;;;;;;;1.90;100.00;102227.66;5057291;28;20076;-77
2023/02/11 05:18:25;;;;;;;68.38;36.95;;;;;;;1.83;100.00;102223.19;5067410;28;20063;-76
2023/02/11 05:20:51;;;;;;;66.85;36.42;;;;;;;1.80;100.00;102217.91;5059474;28;20044;-77
2023/02/11 05:23:18;;;;;;;70.32;37.30;;;;;;;1.67;100.00;102194.19;5069133;28;20048;-75
2023/02/11 05:25:44;;;;;;;68.10;36.88;;;;;;;1.69;100.00;102199.44;5058649;28;20143;-76
2023/02/11 05:28:11;;;;;;;63.50;34.55;;;;;;;0.98;100.00;102085.00;5071866;28;20052;-77
2023/02/11 05:30:38;;;;;;;68.28;36.95;;;;;;;1.94;100.00;102251.25;5060315;28;20367;-77
2023/02/11 05:33:05;;;;;;;66.32;34.80;;;;;;;1.87;100.00;102232.84;5066534;28;20052;-77
2023/02/11 05:35:32;;;;;;;69.43;34.35;;;;;;;1.52;100.00;102173.03;5060770;28;20128;-78
2023/02/11 05:37:59;;;;;;;68.32;35.92;;;;;;;1.83;100.00;102212.75;5066249;28;20400;-78
2023/02/11 05:40:26;;;;;;;70.50;34.45;;;;;;;1.35;100.00;102130.06;5058871;28;20041;-79
2023/02/11 05:42:52;;;;;;;62.33;33.53;;;;;;;1.86;100.00;102221.53;5067101;28;20090;-77
2023/02/11 05:45:19;;;;;;;64.20;34.33;;;;;;;1.94;100.00;102232.97;5069697;28;20055;-78
2023/02/11 05:47:45;;;;;;;63.55;33.78;;;;;;;2.04;100.00;102247.09;5058728;28;20139;-77
2023/02/11 05:50:12;;;;;;;70.43;36.10;;;;;;;2.12;100.00;102261.16;5043037;28;20476;-78
2023/02/11 05:52:39;;;;;;;61.80;33.30;;;;;;;1.70;100.00;102191.63;5069009;28;20057;-77
2023/02/11 05:55:05;;;;;;;63.47;34.35;;;;;;;1.27;100.00;102122.09;5061085;28;20049;-76
2023/02/11 05:57:32;;;;;;;60.63;33.42;;;;;;;2.13;100.00;102278.59;5064413;28;20139;-78
2023/02/11 05:59:59;;;;;;;67.25;34.67;;;;;;;1.85;100.00;102221.50;5055870;28;20045;-77
2023/02/11 06:02:25;;;;;;;63.58;34.50;;;;;;;1.29;100.00;102102.13;5037869;28;20080;-75
2023/02/11 06:04:52;;;;;;;66.85;34.45;;;;;;;2.12;100.00;102258.53;5056744;28;20075;-78
2023/02/11 06:07:18;;;;;;;65.22;34.67;;;;;;;1.76;100.00;102185.63;5057265;28;20233;-77
2023/02/11 06:09:45;;;;;;;61.50;34.15;;;;;;;1.97;100.00;102224.31;5071866;28;20425;-77
2023/02/11 06:12:11;;;;;;;64.43;34.78;;;;;;;1.84;100.00;102220.63;5073183;28;20060;-76
2023/02/11 06:14:38;;;;;;;65.18;35.30;;;;;;;1.24;100.00;102142.94;5077607;28;20076;-77
2023/02/11 06:17:05;;;;;;;61.95;33.75;;;;;;;1.67;100.00;102211.59;5060815;28;20099;-78
2023/02/11 06:19:32;;;;;;;62.35;34.10;;;;;;;1.58;100.00;102212.28;5067883;28;20056;-79
2023/02/11 06:21:58;;;;;;;67.45;35.67;;;;;;;1.78;100.00;102251.84;5061461;28;20143;-76
2023/02/11 06:24:25;;;;;;;63.83;34.85;;;;;;;1.75;100.00;102242.19;5066149;28;20056;-80
2023/02/11 06:27:11;;;;;;;65.18;35.33;;;;;;;1.37;100.00;102178.84;5063750;28;20086;-77
2023/02/11 06:29:38;;;;;;;66.10;35.03;;;;;;;1.75;100.00;102244.81;5070194;28;20511;-76
2023/02/11 06:32:05;;;;;;;60.30;34.25;;;;;;;0.98;100.00;102123.25;5076368;28;20052;-75
2023/02/11 06:34:31;;;;;;;66.57;35.47;;;;;;;1.58;100.00;102222.72;5060130;28;20131;-77
2023/02/11 06:36:58;;;;;;;62.08;34.28;;;;;;;1.55;100.00;102206.16;5077851;28;20048;-76
2023/02/11 06:39:25;;;;;;;66.38;34.67;;;;;;;1.43;100.00;102180.66;5039795;28;20057;-75
2023/02/11 06:41:51;;;;;;;63.17;33.97;;;;;;;1.50;100.00;102207.78;5060052;28;20049;-77
2023/02/11 06:44:18;;;;;;;62.95;34.40;;;;;;;0.56;100.00;102055.50;5063020;28;20150;-77
2023/02/11 06:46:45;;;;;;;64.03;33.80;;;;;;;1.66;100.00;102252.50;5074067;28;20120;-76
2023/02/11 06:49:12;;;;;;;62.85;34.38;;;;;;;1.19;100.00;102178.47;5072965;28;20067;-77
2023/02/11 06:51:38;;;;;;;60.90;33.13;;;;;;;1.13;100.00;102160.09;5071815;28;20080;-74
2023/02/11 06:54:05;;;;;;;61.05;33.53;;;;;;;1.72;100.00;102250.00;5061475;28;20143;-76
2023/02/11 06:56:32;;;;;;;64.60;34.50;;;;;;;1.32;100.00;102179.59;5059333;28;20111;-76
2023/02/11 06:58:59;;;;;;;66.82;34.03;;;;;;;1.26;100.00;102176.88;5064902;28;20044;-76
2023/02/11 07:01:26;;;;;;;63.40;33.60;;;;;;;0.99;100.00;102118.06;5062613;28;20051;-79
2023/02/11 07:03:53;;;;;;;59.65;31.73;;;;;;;1.29;100.00;102143.00;5050231;28;20078;-77
2023/02/11 07:06:23;;;;;;;57.95;31.40;;;;;;;1.75;100.00;102218.69;5055806;28;20134;-76
2023/02/11 07:08:50;;;;;;;59.75;32.53;;;;;;;1.67;100.00;102185.47;5055789;28;20058;-77
2023/02/11 07:11:25;;;;;;;58.15;32.20;;;;;;;1.88;100.00;102225.06;5062404;28;20053;-76
2023/02/11 07:13:54;;;;;;;60.78;32.28;;;;;;;2.02;100.00;102246.19;5061393;28;20059;-77
2023/02/11 07:16:21;;;;;;;60.03;32.78;;;;;;;1.59;100.00;102185.31;5070483;28;20110;-77
2023/02/11 07:18:48;;;;;;;56.92;30.63;;;;;;;1.26;100.00;102130.75;5068779;28;20524;-76
2023/02/11 07:21:18;;;;;;;59.15;32.38;;;;;;;1.40;100.00;102165.84;5055514;28;20041;-77
2023/02/11 07:23:47;;;;;;;58.33;32.03;;;;;;;2.00;100.00;102260.94;5063761;28;20083;-77
2023/02/11 07:26:16;;;;;;;57.90;31.45;;;;;;;1.62;100.00;102192.34;5041280;28;20068;-78
2023/02/11 07:28:44;;;;;;;56.23;30.80;;;;;;;1.89;100.00;102236.38;5064978;28;20051;-77
2023/02/11 07:31:19;;;;;;;59.47;31.52;;;;;;;1.67;100.00;102204.63;5072687;28;20420;-76
2023/02/11 07:33:46;;;;;;;59.63;32.10;;;;;;;1.68;100.00;102209.00;5069869;28;20053;-77
2023/02/11 07:36:16;;;;;;;58.40;31.70;;;;;;;1.93;100.00;102238.16;5067453;28;20043;-77
2023/02/11 07:38:43;;;;;;;58.33;33.05;;;;;;;1.70;100.00;102191.63;5065199;28;20056;-77
2023/02/11 07:41:16;;;;;;;56.95;30.83;;;;;;;1.89;100.00;102210.25;5064174;28;20148;-77
2023/02/11 07:43:43;;;;;;;60.92;32.20;;;;;;;1.90;100.00;102204.16;5063465;28;20052;-77
2023/02/11 07:46:15;;;;;;;60.83;33.03;;;;;;;2.08;100.00;102235.81;5089407;28;20043;-76
2023/02/11 07:48:42;;;;;;;57.80;31.98;;;;;;;1.66;100.00;102174.16;5065856;28;20088;-76
2023/02/11 07:51:14;;;;;;;56.50;31.25;;;;;;;1.57;100.00;102168.78;5065357;28;20055;-76
2023/02/11 07:53:41;;;;;;;53.53;30.55;;;;;;;1.51;100.00;102133.84;5074304;28;20060;-78
2023/02/11 07:56:09;;;;;;;58.45;31.27;;;;;;;1.75;100.00;102169.06;5074956;28;20037;-75
2023/02/11 07:58:36;;;;;;;59.05;30.42;;;;;;;2.06;100.00;102212.28;5073189;28;20135;-77
2023/02/11 08:01:05;;;;;;;55.75;30.45;;;;;;;2.42;100.00;102292.16;5069451;28;20100;-77
2023/02/11 08:03:33;;;;;;;52.85;29.67;;;;;;;2.35;100.00;102267.66;5064284;28;20091;-77
2023/02/11 08:06:05;;;;;;;56.88;30.45;;;;;;;1.56;100.00;102126.97;5063817;28;20044;-76
2023/02/11 08:08:32;;;;;;;50.42;30.90;;;;;;;2.51;100.00;102281.88;5064600;28;20527;-77
2023/02/11 08:11:05;;;;;;;54.83;30.65;;;;;;;1.96;100.00;102191.19;5058155;28;20048;-77
2023/02/11 08:13:32;;;;;;;52.90;30.35;;;;;;;1.64;100.00;102126.25;5061703;28;20136;-76
2023/02/11 08:15:58;;;;;;;57.88;31.85;;;;;;;2.64;100.00;102302.13;5066234;28;20072;-76
2023/02/11 08:18:25;;;;;;;53.90;31.63;;;;;;;2.25;100.00;102226.53;5073958;28;20060;-78
2023/02/11 08:20:52;;;;;;;53.45;30.38;;;;;;;0.88;100.00;101988.31;5062512;28;20048;-76
2023/02/11 08:23:19;;;;;;;61.80;31.90;;;;;;;1.45;100.00;102092.81;5071638;28;20167;-77
2023/02/11 08:25:45;;;;;;;58.95;32.15;;;;;;;2.76;100.00;102293.59;5071216;28;20097;-77
2023/02/11 08:28:12;;;;;;;58.15;30.83;;;;;;;2.15;100.00;102190.66;5072744;28;20135;-78
2023/02/11 08:30:39;;;;;;;51.95;29.52;;;;;;;2.95;100.00;102305.22;5068227;28;20052;-76
2023/02/11 08:33:05;;;;;;;55.28;29.55;;;;;;;2.99;100.00;102286.94;5059269;28;20048;-78
2023/02/11 08:35:34;;;;;;;54.53;30.65;;;;;;;2.67;100.00;102225.44;5064727;28;20054;-75
2023/02/11 08:38:00;;;;;;;56.85;31.63;;;;;;;2.78;100.00;102235.19;5059280;28;20068;-77
2023/02/11 08:40:27;;;;;;;53.17;30.95;;;;;;;3.17;100.00;102302.03;5063512;28;20070;-76
2023/02/11 08:42:54;;;;;;;57.78;30.27;;;;;;;3.01;100.00;102253.81;5066989;28;20055;-77
2023/02/11 08:45:20;;;;;;;51.70;29.55;;;;;;;3.40;100.00;102328.53;5060784;28;20076;-76
2023/02/11 08:47:47;;;;;;;52.92;29.02;;;;;;;3.49;100.00;102329.50;5059764;28;20057;-75
2023/02/11 08:50:14;;;;;;;54.00;29.65;;;;;;;3.20;100.00;102243.59;5061031;28;20051;-77
2023/02/11 08:52:40;;;;;;;47.92;29.70;;;;;;;3.40;100.00;102249.97;5062431;28;20083;-76
2023/02/11 08:55:07;;;;;;;51.20;30.38;;;;;;;3.61;100.00;102259.81;5062678;28;20055;-77
2023/02/11 08:57:34;;;;;;;51.33;30.48;;;;;;;3.34;100.00;102234.16;5065690;28;20052;-77
2023/02/11 09:00:00;;;;;;;52.00;29.33;;;;;;;3.92;100.00;102334.41;5067166;28;20135;-77
2023/02/11 09:02:27;;;;;;;51.75;30.20;;;;;;;3.16;100.00;102225.22;5071101;28;20110;-77
2023/02/11 09:04:53;;;;;;;53.78;29.52;;;;;;;3.04;100.00;102229.44;5079181;28;20052;-76
2023/02/11 09:07:20;;;;;;;55.97;30.20;;;;;;;3.40;100.00;102269.19;5053851;28;20079;-76
2023/02/11 09:09:47;;;;;;;53.97;29.67;;;;;;;3.02;100.00;102163.09;5043176;28;20131;-76
2023/02/11 09:12:13;;;;;;;52.95;30.20;;;;;;;3.62;100.00;102251.94;5063486;28;20048;-76
2023/02/11 09:14:40;;;;;;;57.85;31.27;;;;;;;3.77;100.00;102253.88;5052360;28;20533;-76
2023/02/11 09:17:07;;;;;;;52.53;30.95;;;;;;;3.75;100.00;102221.53;5059670;28;20052;-78
2023/02/11 09:19:34;;;;;;;50.60;29.48;;;;;;;3.69;100.00;102224.97;5056292;28;20501;-78
2023/02/11 09:22:00;;;;;;;52.78;30.45;;;;;;;4.11;100.00;102304.88;5054553;28;20040;-78
2023/02/11 09:24:27;;;;;;;47.70;28.95;;;;;;;4.32;100.00;102299.84;5066465;28;20055;-80
2023/02/11 09:26:54;;;;;;;55.33;29.58;;;;;;;4.51;100.00;102301.78;5061940;28;20064;-77
2023/02/11 09:29:20;;;;;;;52.90;29.58;;;;;;;4.78;100.00;102348.34;5068270;28;20064;-76
2023/02/11 09:31:47;;;;;;;48.00;28.92;;;;;;;4.34;100.00;102261.41;5070096;28;20053;-77
2023/02/11 09:34:14;;;;;;;52.47;30.73;;;;;;;4.23;100.00;102236.84;5060887;28;20052;-76
2023/02/11 09:36:41;;;;;;;53.42;31.05;;;;;;;4.35;100.00;102304.25;5056904;28;20041;-76
2023/02/11 09:39:11;;;;;;;51.83;29.23;;;;;;;4.10;100.00;102309.25;5063808;28;20091;-79
2023/02/11 09:41:41;;;;;;;54.28;30.05;;;;;;;3.77;100.00;102304.56;5052941;28;20163;-76
2023/02/11 09:44:21;;;;;;;52.53;30.58;;;;;;;4.10;100.00;102364.31;5058559;28;20044;-76
2023/02/11 09:46:55;;;;;;;56.00;31.10;;;;;;;3.78;100.00;102306.28;5051936;28;20135;-78
2023/02/11 09:49:30;;;;;;;52.70;30.38;;;;;;;3.91;100.00;102309.94;5057139;28;20125;-76
2023/02/11 09:52:04;;;;;;;52.55;30.17;;;;;;;3.96;100.00;102292.50;5045778;28;20055;-76
2023/02/11 09:54:49;;;;;;;56.42;30.27;;;;;;;4.49;100.00;102360.34;5059022;28;20079;-77
2023/02/11 09:57:16;;;;;;;54.60;29.90;;;;;;;4.45;100.00;102342.81;5065369;28;20049;-78
2023/02/11 09:59:55;;;;;;;50.75;30.38;;;;;;;4.47;100.00;102354.19;5072989;28;20060;-76
2023/02/11 10:02:36;;;;;;;53.85;30.15;;;;;;;4.02;100.00;102253.25;5064960;28;20489;-77
2023/02/11 10:05:20;;;;;;;52.22;30.10;;;;;;;4.80;100.00;102348.34;5065346;28;20139;-78
2023/02/11 10:07:58;;;;;;;55.13;30.73;;;;;;;4.94;100.00;102344.97;5060538;28;20057;-76
2023/02/11 10:10:45;;;;;;;50.53;29.98;;;;;;;4.91;100.00;102307.31;5058213;28;20247;-78
2023/02/11 10:13:39;;;;;;;49.97;31.80;;;;;;;4.57;100.00;102198.59;5056886;28;20048;-77
2023/02/11 10:16:16;;;;;;;50.80;28.83;;;;;;;5.77;100.00;102350.69;5052935;28;20040;-77
2023/02/11 10:19:10;;;;;;;55.60;30.73;;;;;;;5.53;100.00;102293.63;5057681;28;20053;-77
2023/02/11 10:21:45;;;;;;;48.90;29.42;;;;;;;5.86;100.00;102343.69;5038839;28;20135;-79
2023/02/11 10:24:15;;;;;;;57.72;29.88;;;;;;;5.70;100.00;102291.94;5056599;28;20084;-75
2023/02/11 10:26:42;;;;;;;48.92;30.05;;;;;;;5.90;100.00;102339.38;5049718;28;20139;-76
2023/02/11 10:29:34;;;;;;;48.50;29.55;;;;;;;5.41;100.00;102260.31;5067895;28;20072;-77
2023/02/11 10:32:06;;;;;;;51.78;29.25;;;;;;;5.55;100.00;102303.28;5058144;28;20048;-79
2023/02/11 10:34:33;;;;;;;49.70;28.92;;;;;;;5.57;100.00;102334.81;5058167;28;20067;-77
2023/02/11 10:37:00;;;;;;;51.75;29.60;;;;;;;5.43;100.00;102339.13;5043672;28;20041;-76
2023/02/11 10:39:27;;;;;;;53.83;31.10;;;;;;;5.36;100.00;102342.59;5065366;28;20569;-77
2023/02/11 10:41:58;;;;;;;49.70;29.85;;;;;;;5.10;100.00;102305.69;5067137;28;20057;-76
2023/02/11 10:44:32;;;;;;;50.63;29.63;;;;;;;5.12;100.00;102331.09;5063991;28;20122;-77
2023/02/11 10:47:07;;;;;;;55.60;30.48;;;;;;;4.55;100.00;102240.59;5079551;28;20044;-80
2023/02/11 10:49:37;;;;;;;51.90;31.90;;;;;;;5.06;100.00;102367.78;5074353;28;20135;-78
2023/02/11 10:52:16;;;;;;;57.10;31.50;;;;;;;4.96;100.00;102352.84;5064113;28;20131;-77
2023/02/11 10:54:55;;;;;;;54.90;30.60;;;;;;;4.61;100.00;102286.97;5058221;28;20072;-76
2023/02/11 10:57:27;;;;;;;56.25;31.48;;;;;;;4.45;100.00;102254.50;5053800;28;20121;-77
2023/02/11 11:00:00;;;;;;;51.08;30.50;;;;;;;5.12;100.00;102346.84;5059000;28;20088;-77
2023/02/11 11:02:33;;;;;;;50.95;29.98;;;;;;;4.99;100.00;102308.25;5063416;28;20080;-77
2023/02/11 11:05:13;;;;;;;54.42;32.08;;;;;;;4.15;100.00;102141.50;5063291;28;20375;-76
2023/02/11 11:07:52;;;;;;;67.32;36.58;;;;;;;3.77;100.00;102037.28;5059709;28;20148;-77
2023/02/11 11:10:34;;;;;;;82.45;42.15;;;;;;;5.82;100.00;102341.97;5060264;28;20063;-77
2023/02/11 11:13:01;;;;;;;59.97;32.90;;;;;;;5.49;100.00;102253.34;5057675;28;20092;-77
2023/02/11 11:15:30;;;;;;;52.42;30.38;;;;;;;6.05;100.00;102336.78;5062858;28;20049;-77
2023/02/11 11:18:14;;;;;;;85.45;43.58;;;;;;;6.29;100.00;102338.59;5056810;28;20092;-77
2023/02/11 11:20:58;;;;;;;82.45;42.65;;;;;;;6.42;100.00;102323.69;5071491;28;20421;-77
2023/02/11 11:23:28;;;;;;;53.63;30.27;;;;;;;5.95;100.00;102272.78;5066263;28;20056;-78
2023/02/11 11:26:12;;;;;;;55.42;31.40;;;;;;;6.07;100.00;102340.28;5053691;28;20140;-77
2023/02/11 11:28:58;;;;;;;47.20;28.50;;;;;;;5.78;100.00;102313.00;5067246;28;20059;-78